sensor_id;sensor_type;location;lat;lon;timestamp;pressure;altitude;pressure_sealevel;temperature;humidity
8653;BME280;4364;52.426;9.424;2024-03-17T00:02:08;101888.66;;;4.27;99.81
8653;BME280;4364;52.426;9.424;2024-03-17T00:04:34;101901.09;;;4.29;99.89
8653;BME280;4364;52.426;9.424;2024-03-17T00:06:59;101897.97;;;4.25;100.00
8653;BME280;4364;52.426;9.424;2024-03-17T00:09:25;101896.72;;;4.21;100.00
8653;BME280;4364;52.426;9.424;2024-03-17T00:11:51;101893.81;;;4.16;100.00
8653;BME280;4364;52.426;9.424;2024-03-17T00:14:17;101891.13;;;4.16;100.00
8653;BME280;4364;52.426;9.424;2024-03-17T00:16:44;101890.50;;;4.14;100.00
8653;BME280;4364;52.426;9.424;2024-03-17T00:19:09;101898.97;;;4.11;99.96
8653;BME280;4364;52.426;9.424;2024-03-17T00:21:35;101890.06;;;4.03;99.98
8653;BME280;4364;52.426;9.424;2024-03-17T00:24:01;101887.78;;;3.94;100.00
8653;BME280;4364;52.426;9.424;2024-03-17T00:26:28;101889.41;;;3.88;100.00
8653;BME280;4364;52.426;9.424;2024-03-17T00:28:55;101894.38;;;3.84;100.00
8653;BME280;4364;52.426;9.424;2024-03-17T00:31:20;101896.88;;;3.86;100.00
8653;BME280;4364;52.426;9.424;2024-03-17T00:33:46;101896.03;;;3.85;100.00
8653;BME280;4364;52.426;9.424;2024-03-17T00:36:12;101896.25;;;3.90;100.00
8653;BME280;4364;52.426;9.424;2024-03-17T00:38:37;101901.81;;;3.89;100.00
8653;BME280;4364;52.426;9.424;2024-03-17T00:41:04;101890.66;;;3.85;100.00
8653;BME280;4364;52.426;9.424;2024-03-17T00:43:29;101905.34;;;3.83;100.00
8653;BME280;4364;52.426;9.424;2024-03-17T00:45:55;101901.19;;;3.80;100.00
8653;BME280;4364;52.426;9.424;2024-03-17T00:48:21;101901.59;;;3.77;100.00
8653;BME280;4364;52.426;9.424;2024-03-17T00:50:54;101909.06;;;3.82;100.00
8653;BME280;4364;52.426;9.424;2024-03-17T00:53:20;101906.56;;;3.80;100.00
8653;BME280;4364;52.426;9.424;2024-03-17T00:55:51;101897.28;;;3.83;100.00
8653;BME280;4364;52.426;9.424;2024-03-17T00:58:18;101898.28;;;3.82;100.00
8653;BME280;4364;52.426;9.424;2024-03-17T01:00:43;101907.38;;;3.81;100.00
8653;BME280;4364;52.426;9.424;2024-03-17T01:03:09;101897.69;;;3.80;100.00
8653;BME280;4364;52.426;9.424;2024-03-17T01:05:38;101899.53;;;3.79;100.00
8653;BME280;4364;52.426;9.424;2024-03-17T01:08:08;101892.88;;;3.75;100.00
8653;BME280;4364;52.426;9.424;2024-03-17T01:10:37;101889.97;;;3.70;100.00
8653;BME280;4364;52.426;9.424;2024-03-17T01:13:03;101890.56;;;3.65;100.00
8653;BME280;4364;52.426;9.424;2024-03-17T01:15:28;101891.19;;;3.61;100.00
8653;BME280;4364;52.426;9.424;2024-03-17T01:17:54;101887.28;;;3.63;100.00
8653;BME280;4364;52.426;9.424;2024-03-17T01:20:19;101884.16;;;3.60;100.00
8653;BME280;4364;52.426;9.424;2024-03-17T01:22:45;101883.06;;;3.54;100.00
8653;BME280;4364;52.426;9.424;2024-03-17T01:25:11;101881.44;;;3.53;100.00
8653;BME280;4364;52.426;9.424;2024-03-17T01:27:36;101874.81;;;3.56;100.00
8653;BME280;4364;52.426;9.424;2024-03-17T01:30:02;101876.69;;;3.55;100.00
8653;BME280;4364;52.426;9.424;2024-03-17T01:32:28;101881.88;;;3.57;100.00
8653;BME280;4364;52.426;9.424;2024-03-17T01:34:53;101878.56;;;3.55;100.00
8653;BME280;4364;52.426;9.424;2024-03-17T01:37:19;101874.59;;;3.50;100.00
8653;BME280;4364;52.426;9.424;2024-03-17T01:39:44;101869.88;;;3.59;100.00
8653;BME280;4364;52.426;9.424;2024-03-17T01:42:10;101868.81;;;3.53;100.00
8653;BME280;4364;52.426;9.424;2024-03-17T01:44:35;101865.31;;;3.53;100.00
8653;BME280;4364;52.426;9.424;2024-03-17T01:47:01;101865.50;;;3.51;100.00
8653;BME280;4364;52.426;9.424;2024-03-17T01:49:29;101867.38;;;3.51;100.00
8653;BME280;4364;52.426;9.424;2024-03-17T01:51:55;101867.13;;;3.39;100.00
8653;BME280;4364;52.426;9.424;2024-03-17T01:54:21;101864.19;;;3.34;100.00
8653;BME280;4364;52.426;9.424;2024-03-17T01:56:47;101859.41;;;3.29;100.00
8653;BME280;4364;52.426;9.424;2024-03-17T01:59:13;101866.00;;;3.27;100.00
8653;BME280;4364;52.426;9.424;2024-03-17T02:01:39;101866.81;;;3.21;100.00
8653;BME280;4364;52.426;9.424;2024-03-17T02:04:06;101863.09;;;3.22;100.00
8653;BME280;4364;52.426;9.424;2024-03-17T02:06:32;101868.47;;;3.22;100.00
8653;BME280;4364;52.426;9.424;2024-03-17T02:08:57;101860.22;;;3.23;100.00
8653;BME280;4364;52.426;9.424;2024-03-17T02:11:28;101863.72;;;3.24;100.00
8653;BME280;4364;52.426;9.424;2024-03-17T02:13:54;101865.16;;;3.20;100.00
8653;BME280;4364;52.426;9.424;2024-03-17T02:16:21;101862.03;;;3.16;100.00
8653;BME280;4364;52.426;9.424;2024-03-17T02:18:47;101861.38;;;3.14;100.00
8653;BME280;4364;52.426;9.424;2024-03-17T02:21:13;101862.81;;;3.10;100.00
8653;BME280;4364;52.426;9.424;2024-03-17T02:23:41;101858.03;;;3.05;100.00
8653;BME280;4364;52.426;9.424;2024-03-17T02:26:07;101854.88;;;2.95;100.00
8653;BME280;4364;52.426;9.424;2024-03-17T02:28:43;101863.97;;;2.94;100.00
8653;BME280;4364;52.426;9.424;2024-03-17T02:31:10;101858.81;;;2.92;100.00
8653;BME280;4364;52.426;9.424;2024-03-17T02:33:36;101853.59;;;2.84;100.00
8653;BME280;4364;52.426;9.424;2024-03-17T02:36:03;101857.28;;;2.83;100.00
8653;BME280;4364;52.426;9.424;2024-03-17T02:38:36;101852.31;;;2.80;100.00
8653;BME280;4364;52.426;9.424;2024-03-17T02:41:21;101863.88;;;2.81;100.00
8653;BME280;4364;52.426;9.424;2024-03-17T02:43:47;101850.69;;;2.79;100.00
8653;BME280;4364;52.426;9.424;2024-03-17T02:46:15;101858.50;;;2.81;100.00
8653;BME280;4364;52.426;9.424;2024-03-17T02:48:41;101850.72;;;2.86;100.00
8653;BME280;4364;52.426;9.424;2024-03-17T02:51:17;101845.53;;;2.84;100.00
8653;BME280;4364;52.426;9.424;2024-03-17T02:53:44;101842.81;;;2.77;100.00
8653;BME280;4364;52.426;9.424;2024-03-17T02:56:13;101845.25;;;2.72;100.00
8653;BME280;4364;52.426;9.424;2024-03-17T02:58:42;101841.91;;;2.70;100.00
8653;BME280;4364;52.426;9.424;2024-03-17T03:01:08;101850.16;;;2.69;100.00
8653;BME280;4364;52.426;9.424;2024-03-17T03:03:35;101847.25;;;2.64;100.00
8653;BME280;4364;52.426;9.424;2024-03-17T03:06:01;101849.69;;;2.58;100.00
8653;BME280;4364;52.426;9.424;2024-03-17T03:08:30;101854.66;;;2.62;100.00
8653;BME280;4364;52.426;9.424;2024-03-17T03:10:56;101855.78;;;2.74;100.00
8653;BME280;4364;52.426;9.424;2024-03-17T03:13:21;101858.13;;;2.84;100.00
8653;BME280;4364;52.426;9.424;2024-03-17T03:15:50;101857.53;;;2.88;100.00
8653;BME280;4364;52.426;9.424;2024-03-17T03:18:16;101862.72;;;2.90;100.00
8653;BME280;4364;52.426;9.424;2024-03-17T03:20:41;101863.50;;;2.84;100.00
8653;BME280;4364;52.426;9.424;2024-03-17T03:23:07;101858.56;;;2.87;100.00
8653;BME280;4364;52.426;9.424;2024-03-17T03:25:33;101860.66;;;2.92;100.00
8653;BME280;4364;52.426;9.424;2024-03-17T03:27:58;101862.53;;;2.91;100.00
8653;BME280;4364;52.426;9.424;2024-03-17T03:30:24;101857.09;;;2.85;100.00
8653;BME280;4364;52.426;9.424;2024-03-17T03:32:50;101861.19;;;2.81;100.00
8653;BME280;4364;52.426;9.424;2024-03-17T03:35:16;101862.81;;;2.75;100.00
8653;BME280;4364;52.426;9.424;2024-03-17T03:37:41;101856.59;;;2.68;100.00
8653;BME280;4364;52.426;9.424;2024-03-17T03:40:08;101860.66;;;2.64;100.00
8653;BME280;4364;52.426;9.424;2024-03-17T03:42:45;101857.31;;;2.55;100.00
8653;BME280;4364;52.426;9.424;2024-03-17T03:45:11;101868.00;;;2.48;100.00
8653;BME280;4364;52.426;9.424;2024-03-17T03:47:43;101860.72;;;2.42;100.00
8653;BME280;4364;52.426;9.424;2024-03-17T03:50:12;101854.09;;;2.38;100.00
8653;BME280;4364;52.426;9.424;2024-03-17T03:52:38;101850.34;;;2.32;100.00
8653;BME280;4364;52.426;9.424;2024-03-17T03:55:06;101857.72;;;2.30;100.00
8653;BME280;4364;52.426;9.424;2024-03-17T03:57:33;101862.53;;;2.35;100.00
8653;BME280;4364;52.426;9.424;2024-03-17T03:59:59;101857.34;;;2.33;100.00
8653;BME280;4364;52.426;9.424;2024-03-17T04:02:26;101853.41;;;2.29;100.00
8653;BME280;4364;52.426;9.424;2024-03-17T04:04:57;101863.41;;;2.20;100.00
8653;BME280;4364;52.426;9.424;2024-03-17T04:07:23;101864.84;;;2.16;100.00
8653;BME280;4364;52.426;9.424;2024-03-17T04:09:49;101860.66;;;2.14;100.00
8653;BME280;4364;52.426;9.424;2024-03-17T04:12:15;101856.97;;;2.15;100.00
8653;BME280;4364;52.426;9.424;2024-03-17T04:14:40;101858.78;;;2.08;100.00
8653;BME280;4364;52.426;9.424;2024-03-17T04:17:06;101859.16;;;2.04;100.00
8653;BME280;4364;52.426;9.424;2024-03-17T04:19:31;101864.97;;;2.08;100.00
8653;BME280;4364;52.426;9.424;2024-03-17T04:21:57;101861.47;;;2.08;100.00
8653;BME280;4364;52.426;9.424;2024-03-17T04:24:22;101859.78;;;2.07;100.00
8653;BME280;4364;52.426;9.424;2024-03-17T04:26:48;101859.72;;;2.00;100.00
8653;BME280;4364;52.426;9.424;2024-03-17T04:29:14;101866.69;;;1.94;100.00
8653;BME280;4364;52.426;9.424;2024-03-17T04:31:40;101862.34;;;1.93;100.00
8653;BME280;4364;52.426;9.424;2024-03-17T04:34:07;101866.69;;;1.94;100.00
8653;BME280;4364;52.426;9.424;2024-03-17T04:36:33;101863.16;;;1.94;100.00
8653;BME280;4364;52.426;9.424;2024-03-17T04:38:58;101866.81;;;1.86;100.00
8653;BME280;4364;52.426;9.424;2024-03-17T04:41:24;101867.00;;;1.84;100.00
8653;BME280;4364;52.426;9.424;2024-03-17T04:43:49;101864.81;;;1.73;100.00
8653;BME280;4364;52.426;9.424;2024-03-17T04:46:15;101865.38;;;1.69;100.00
8653;BME280;4364;52.426;9.424;2024-03-17T04:48:41;101870.72;;;1.69;100.00
8653;BME280;4364;52.426;9.424;2024-03-17T04:51:07;101879.38;;;1.64;100.00
8653;BME280;4364;52.426;9.424;2024-03-17T04:53:32;101876.41;;;1.59;100.00
8653;BME280;4364;52.426;9.424;2024-03-17T04:55:59;101881.88;;;1.65;100.00
8653;BME280;4364;52.426;9.424;2024-03-17T04:58:26;101876.34;;;1.74;100.00
8653;BME280;4364;52.426;9.424;2024-03-17T05:00:51;101878.22;;;1.73;100.00
8653;BME280;4364;52.426;9.424;2024-03-17T05:03:17;101880.81;;;1.66;100.00
8653;BME280;4364;52.426;9.424;2024-03-17T05:05:42;101886.94;;;1.60;100.00
8653;BME280;4364;52.426;9.424;2024-03-17T05:08:08;101887.22;;;1.65;100.00
8653;BME280;4364;52.426;9.424;2024-03-17T05:10:33;101897.09;;;1.65;100.00
8653;BME280;4364;52.426;9.424;2024-03-17T05:12:59;101895.63;;;1.62;100.00
8653;BME280;4364;52.426;9.424;2024-03-17T05:15:25;101893.50;;;1.58;100.00
8653;BME280;4364;52.426;9.424;2024-03-17T05:17:50;101897.88;;;1.59;100.00
8653;BME280;4364;52.426;9.424;2024-03-17T05:20:16;101891.47;;;1.60;100.00
8653;BME280;4364;52.426;9.424;2024-03-17T05:22:41;101891.66;;;1.58;100.00
8653;BME280;4364;52.426;9.424;2024-03-17T05:25:07;101897.28;;;1.63;100.00
8653;BME280;4364;52.426;9.424;2024-03-17T05:27:33;101900.63;;;1.65;100.00
8653;BME280;4364;52.426;9.424;2024-03-17T05:29:59;101899.16;;;1.63;100.00
8653;BME280;4364;52.426;9.424;2024-03-17T05:32:24;101897.47;;;1.62;100.00
8653;BME280;4364;52.426;9.424;2024-03-17T05:34:51;101894.78;;;1.62;100.00
8653;BME280;4364;52.426;9.424;2024-03-17T05:37:17;101907.19;;;1.63;100.00
8653;BME280;4364;52.426;9.424;2024-03-17T05:39:42;101903.03;;;1.60;100.00
8653;BME280;4364;52.426;9.424;2024-03-17T05:42:08;101900.75;;;1.57;100.00
8653;BME280;4364;52.426;9.424;2024-03-17T05:44:33;101907.75;;;1.58;100.00
8653;BME280;4364;52.426;9.424;2024-03-17T05:47:17;101909.59;;;1.58;100.00
8653;BME280;4364;52.426;9.424;2024-03-17T05:49:42;101909.59;;;1.58;100.00
8653;BME280;4364;52.426;9.424;2024-03-17T05:52:08;101916.25;;;1.62;100.00
8653;BME280;4364;52.426;9.424;2024-03-17T05:54:34;101916.50;;;1.67;100.00
8653;BME280;4364;52.426;9.424;2024-03-17T05:56:59;101920.88;;;1.68;100.00
8653;BME280;4364;52.426;9.424;2024-03-17T05:59:25;101915.13;;;1.71;100.00
8653;BME280;4364;52.426;9.424;2024-03-17T06:01:50;101923.06;;;1.79;100.00
8653;BME280;4364;52.426;9.424;2024-03-17T06:04:16;101908.63;;;1.80;100.00
8653;BME280;4364;52.426;9.424;2024-03-17T06:06:42;101919.75;;;1.77;100.00
8653;BME280;4364;52.426;9.424;2024-03-17T06:09:08;101921.38;;;1.78;100.00
8653;BME280;4364;52.426;9.424;2024-03-17T06:11:35;101924.34;;;1.83;100.00
8653;BME280;4364;52.426;9.424;2024-03-17T06:14:01;101919.91;;;1.91;100.00
8653;BME280;4364;52.426;9.424;2024-03-17T06:16:30;101918.66;;;1.93;100.00
8653;BME280;4364;52.426;9.424;2024-03-17T06:18:56;101910.44;;;1.95;100.00
8653;BME280;4364;52.426;9.424;2024-03-17T06:21:22;101907.81;;;2.01;100.00
8653;BME280;4364;52.426;9.424;2024-03-17T06:23:47;101908.66;;;2.02;100.00
8653;BME280;4364;52.426;9.424;2024-03-17T06:26:13;101906.16;;;2.00;100.00
8653;BME280;4364;52.426;9.424;2024-03-17T06:28:38;101914.69;;;2.04;100.00
8653;BME280;4364;52.426;9.424;2024-03-17T06:31:04;101907.25;;;2.06;100.00
8653;BME280;4364;52.426;9.424;2024-03-17T06:33:32;101914.09;;;2.09;100.00
8653;BME280;4364;52.426;9.424;2024-03-17T06:36:01;101903.81;;;2.12;100.00
8653;BME280;4364;52.426;9.424;2024-03-17T06:38:29;101901.47;;;2.24;100.00
8653;BME280;4364;52.426;9.424;2024-03-17T06:40:55;101899.09;;;2.36;100.00
8653;BME280;4364;52.426;9.424;2024-03-17T06:43:20;101904.53;;;2.43;100.00
8653;BME280;4364;52.426;9.424;2024-03-17T06:46:00;101904.31;;;2.44;100.00
8653;BME280;4364;52.426;9.424;2024-03-17T06:48:26;101907.44;;;2.48;100.00
8653;BME280;4364;52.426;9.424;2024-03-17T06:50:53;101905.59;;;2.48;100.00
8653;BME280;4364;52.426;9.424;2024-03-17T06:53:23;101906.81;;;2.46;100.00
8653;BME280;4364;52.426;9.424;2024-03-17T06:58:20;101902.47;;;2.45;100.00
8653;BME280;4364;52.426;9.424;2024-03-17T07:00:58;101907.88;;;2.51;100.00
8653;BME280;4364;52.426;9.424;2024-03-17T07:03:29;101893.69;;;2.57;100.00
8653;BME280;4364;52.426;9.424;2024-03-17T07:05:56;101897.63;;;2.62;100.00
8653;BME280;4364;52.426;9.424;2024-03-17T07:08:23;101896.91;;;2.74;100.00
8653;BME280;4364;52.426;9.424;2024-03-17T07:10:59;101892.81;;;2.78;100.00
8653;BME280;4364;52.426;9.424;2024-03-17T07:13:25;101896.97;;;2.81;100.00
8653;BME280;4364;52.426;9.424;2024-03-17T07:15:51;101900.28;;;2.83;100.00
8653;BME280;4364;52.426;9.424;2024-03-17T07:18:16;101902.59;;;2.86;100.00
8653;BME280;4364;52.426;9.424;2024-03-17T07:20:42;101900.41;;;3.03;100.00
8653;BME280;4364;52.426;9.424;2024-03-17T07:23:07;101898.94;;;3.01;100.00
8653;BME280;4364;52.426;9.424;2024-03-17T07:25:33;101904.78;;;3.04;100.00
8653;BME280;4364;52.426;9.424;2024-03-17T07:27:58;101900.66;;;3.08;100.00
8653;BME280;4364;52.426;9.424;2024-03-17T07:30:24;101899.47;;;3.18;100.00
8653;BME280;4364;52.426;9.424;2024-03-17T07:32:49;101901.16;;;3.25;100.00
8653;BME280;4364;52.426;9.424;2024-03-17T07:35:15;101912.19;;;3.37;100.00
8653;BME280;4364;52.426;9.424;2024-03-17T07:37:40;101913.69;;;3.46;100.00
8653;BME280;4364;52.426;9.424;2024-03-17T07:40:06;101905.44;;;3.55;100.00
8653;BME280;4364;52.426;9.424;2024-03-17T07:42:32;101915.28;;;3.89;100.00
8653;BME280;4364;52.426;9.424;2024-03-17T07:44:59;101924.59;;;3.86;100.00
8653;BME280;4364;52.426;9.424;2024-03-17T07:47:24;101924.44;;;3.95;100.00
8653;BME280;4364;52.426;9.424;2024-03-17T07:49:50;101919.25;;;4.00;100.00
8653;BME280;4364;52.426;9.424;2024-03-17T07:52:16;101904.38;;;4.11;100.00
8653;BME280;4364;52.426;9.424;2024-03-17T07:54:41;101911.00;;;4.15;100.00
8653;BME280;4364;52.426;9.424;2024-03-17T07:57:08;101914.94;;;4.19;100.00
8653;BME280;4364;52.426;9.424;2024-03-17T07:59:34;101903.16;;;4.26;100.00
8653;BME280;4364;52.426;9.424;2024-03-17T08:01:59;101906.69;;;4.40;100.00
8653;BME280;4364;52.426;9.424;2024-03-17T08:04:25;101908.56;;;4.60;100.00
8653;BME280;4364;52.426;9.424;2024-03-17T08:06:51;101909.59;;;4.66;100.00
8653;BME280;4364;52.426;9.424;2024-03-17T08:09:17;101911.66;;;4.70;100.00
8653;BME280;4364;52.426;9.424;2024-03-17T08:11:43;101911.84;;;4.95;100.00
8653;BME280;4364;52.426;9.424;2024-03-17T08:14:12;101904.56;;;5.03;100.00
8653;BME280;4364;52.426;9.424;2024-03-17T08:16:40;101915.56;;;5.01;100.00
8653;BME280;4364;52.426;9.424;2024-03-17T08:19:05;101912.22;;;5.12;100.00
8653;BME280;4364;52.426;9.424;2024-03-17T08:21:32;101902.63;;;5.36;100.00
8653;BME280;4364;52.426;9.424;2024-03-17T08:23:57;101895.75;;;5.47;100.00
8653;BME280;4364;52.426;9.424;2024-03-17T08:26:23;101896.81;;;5.33;100.00
8653;BME280;4364;52.426;9.424;2024-03-17T08:28:49;101890.75;;;5.44;100.00
8653;BME280;4364;52.426;9.424;2024-03-17T08:31:14;101897.19;;;5.50;100.00
8653;BME280;4364;52.426;9.424;2024-03-17T08:33:43;101891.28;;;5.66;100.00
8653;BME280;4364;52.426;9.424;2024-03-17T08:36:09;101891.50;;;5.71;100.00
8653;BME280;4364;52.426;9.424;2024-03-17T08:38:36;101896.38;;;5.88;100.00
8653;BME280;4364;52.426;9.424;2024-03-17T08:41:06;101897.56;;;6.05;99.56
8653;BME280;4364;52.426;9.424;2024-03-17T08:43:32;101899.25;;;5.93;99.53
8653;BME280;4364;52.426;9.424;2024-03-17T08:46:06;101887.16;;;6.09;98.96
8653;BME280;4364;52.426;9.424;2024-03-17T08:48:33;101884.03;;;6.12;96.89
8653;BME280;4364;52.426;9.424;2024-03-17T08:51:00;101889.22;;;6.39;93.86
8653;BME280;4364;52.426;9.424;2024-03-17T08:53:27;101888.97;;;6.47;92.93
8653;BME280;4364;52.426;9.424;2024-03-17T08:55:54;101883.34;;;6.48;93.07
8653;BME280;4364;52.426;9.424;2024-03-17T08:58:19;101882.16;;;6.38;94.09
8653;BME280;4364;52.426;9.424;2024-03-17T09:00:45;101878.97;;;6.47;94.02
8653;BME280;4364;52.426;9.424;2024-03-17T09:03:11;101885.25;;;6.66;91.43
8653;BME280;4364;52.426;9.424;2024-03-17T09:05:39;101876.69;;;6.70;90.44
8653;BME280;4364;52.426;9.424;2024-03-17T09:08:06;101885.72;;;6.63;90.78
8653;BME280;4364;52.426;9.424;2024-03-17T09:10:41;101881.88;;;6.71;92.22
8653;BME280;4364;52.426;9.424;2024-03-17T09:13:07;101890.25;;;6.88;90.19
8653;BME280;4364;52.426;9.424;2024-03-17T09:15:33;101892.44;;;6.98;89.63
8653;BME280;4364;52.426;9.424;2024-03-17T09:17:59;101896.66;;;6.94;90.49
8653;BME280;4364;52.426;9.424;2024-03-17T09:20:24;101899.50;;;6.99;89.25
8653;BME280;4364;52.426;9.424;2024-03-17T09:22:50;101896.16;;;7.03;87.41
8653;BME280;4364;52.426;9.424;2024-03-17T09:25:15;101900.94;;;7.01;88.31
8653;BME280;4364;52.426;9.424;2024-03-17T09:27:41;101899.00;;;7.09;89.42
8653;BME280;4364;52.426;9.424;2024-03-17T09:30:07;101908.41;;;7.24;88.17
8653;BME280;4364;52.426;9.424;2024-03-17T09:32:38;101901.28;;;7.30;88.52
8653;BME280;4364;52.426;9.424;2024-03-17T09:35:04;101901.94;;;7.44;88.40
8653;BME280;4364;52.426;9.424;2024-03-17T09:37:30;101905.91;;;7.41;87.68
8653;BME280;4364;52.426;9.424;2024-03-17T09:39:59;101903.44;;;7.58;86.55
8653;BME280;4364;52.426;9.424;2024-03-17T09:42:26;101910.34;;;7.54;85.46
8653;BME280;4364;52.426;9.424;2024-03-17T09:44:53;101913.78;;;7.61;86.17
8653;BME280;4364;52.426;9.424;2024-03-17T09:47:23;101906.63;;;7.86;84.90
8653;BME280;4364;52.426;9.424;2024-03-17T09:49:50;101902.63;;;7.88;83.86
8653;BME280;4364;52.426;9.424;2024-03-17T09:52:24;101903.41;;;7.77;85.68
8653;BME280;4364;52.426;9.424;2024-03-17T09:54:59;101897.19;;;7.88;84.65
8653;BME280;4364;52.426;9.424;2024-03-17T09:57:27;101895.38;;;8.01;84.61
8653;BME280;4364;52.426;9.424;2024-03-17T09:59:54;101899.81;;;7.95;84.37
8653;BME280;4364;52.426;9.424;2024-03-17T10:02:21;101889.28;;;8.05;83.60
8653;BME280;4364;52.426;9.424;2024-03-17T10:04:47;101888.47;;;8.16;83.60
8653;BME280;4364;52.426;9.424;2024-03-17T10:07:13;101881.69;;;8.38;83.37
8653;BME280;4364;52.426;9.424;2024-03-17T10:09:43;101889.72;;;8.44;82.66
8653;BME280;4364;52.426;9.424;2024-03-17T10:12:27;101870.53;;;8.46;82.32
8653;BME280;4364;52.426;9.424;2024-03-17T10:15:00;101879.38;;;8.65;81.48
8653;BME280;4364;52.426;9.424;2024-03-17T10:17:30;101884.91;;;8.82;80.03
8653;BME280;4364;52.426;9.424;2024-03-17T10:20:11;101879.88;;;8.85;79.21
8653;BME280;4364;52.426;9.424;2024-03-17T10:22:38;101887.84;;;9.16;76.94
8653;BME280;4364;52.426;9.424;2024-03-17T10:25:03;101880.53;;;9.16;75.95
8653;BME280;4364;52.426;9.424;2024-03-17T10:27:29;101885.84;;;9.23;72.79
8653;BME280;4364;52.426;9.424;2024-03-17T10:29:55;101887.47;;;9.36;74.50
8653;BME280;4364;52.426;9.424;2024-03-17T10:32:21;101885.59;;;9.24;73.67
8653;BME280;4364;52.426;9.424;2024-03-17T10:34:49;101882.41;;;9.27;74.24
8653;BME280;4364;52.426;9.424;2024-03-17T10:37:17;101888.16;;;9.43;74.65
8653;BME280;4364;52.426;9.424;2024-03-17T10:39:46;101892.59;;;9.61;73.44
8653;BME280;4364;52.426;9.424;2024-03-17T10:42:13;101891.22;;;9.75;72.65
8653;BME280;4364;52.426;9.424;2024-03-17T10:44:43;101889.63;;;9.91;72.06
8653;BME280;4364;52.426;9.424;2024-03-17T10:47:21;101890.06;;;10.00;69.84
8653;BME280;4364;52.426;9.424;2024-03-17T10:49:50;101885.06;;;9.51;69.30
8653;BME280;4364;52.426;9.424;2024-03-17T10:52:17;101876.34;;;9.49;69.43
8653;BME280;4364;52.426;9.424;2024-03-17T10:54:47;101873.72;;;9.54;69.93
8653;BME280;4364;52.426;9.424;2024-03-17T10:57:27;101871.41;;;9.75;66.33
8653;BME280;4364;52.426;9.424;2024-03-17T10:59:57;101869.19;;;9.89;65.58
8653;BME280;4364;52.426;9.424;2024-03-17T11:02:25;101871.53;;;9.97;64.56
8653;BME280;4364;52.426;9.424;2024-03-17T11:04:58;101872.56;;;9.79;65.47
8653;BME280;4364;52.426;9.424;2024-03-17T11:07:25;101870.38;;;9.93;65.21
8653;BME280;4364;52.426;9.424;2024-03-17T11:09:55;101868.16;;;10.07;63.64
8653;BME280;4364;52.426;9.424;2024-03-17T11:12:47;101874.56;;;10.00;65.05
8653;BME280;4364;52.426;9.424;2024-03-17T11:17:45;101860.72;;;10.65;66.12
8653;BME280;4364;52.426;9.424;2024-03-17T11:20:14;101863.66;;;10.80;63.55
8653;BME280;4364;52.426;9.424;2024-03-17T11:22:44;101854.28;;;10.71;61.99
8653;BME280;4364;52.426;9.424;2024-03-17T11:27:51;101844.78;;;10.73;62.11
8653;BME280;4364;52.426;9.424;2024-03-17T11:39:08;101838.13;;;11.03;59.72
8653;BME280;4364;52.426;9.424;2024-03-17T11:41:48;101836.88;;;10.72;59.84
8653;BME280;4364;52.426;9.424;2024-03-17T11:47:05;101838.31;;;11.19;59.84
8653;BME280;4364;52.426;9.424;2024-03-17T11:49:39;101835.91;;;11.22;61.32
8653;BME280;4364;52.426;9.424;2024-03-17T11:52:13;101837.44;;;11.35;59.84
8653;BME280;4364;52.426;9.424;2024-03-17T11:54:41;101835.13;;;11.71;59.16
8653;BME280;4364;52.426;9.424;2024-03-17T11:59:34;101830.09;;;12.17;57.12
8653;BME280;4364;52.426;9.424;2024-03-17T12:02:00;101834.78;;;12.22;57.58
8653;BME280;4364;52.426;9.424;2024-03-17T12:04:27;101832.16;;;12.00;57.67
8653;BME280;4364;52.426;9.424;2024-03-17T12:06:58;101827.31;;;11.80;58.34
8653;BME280;4364;52.426;9.424;2024-03-17T12:09:29;101821.13;;;11.62;57.37
8653;BME280;4364;52.426;9.424;2024-03-17T12:14:28;101821.38;;;11.88;58.05
8653;BME280;4364;52.426;9.424;2024-03-17T12:16:55;101818.34;;;11.57;56.38
8653;BME280;4364;52.426;9.424;2024-03-17T12:19:23;101811.75;;;11.80;57.17
8653;BME280;4364;52.426;9.424;2024-03-17T12:21:50;101798.38;;;12.06;57.72
8653;BME280;4364;52.426;9.424;2024-03-17T12:24:18;101795.44;;;12.13;58.47
8653;BME280;4364;52.426;9.424;2024-03-17T12:26:46;101793.19;;;12.37;57.62
8653;BME280;4364;52.426;9.424;2024-03-17T12:29:27;101794.22;;;12.31;56.80
8653;BME280;4364;52.426;9.424;2024-03-17T12:31:56;101780.06;;;12.34;55.71
8653;BME280;4364;52.426;9.424;2024-03-17T12:34:25;101781.69;;;11.97;56.01
8653;BME280;4364;52.426;9.424;2024-03-17T12:36:52;101789.44;;;11.83;58.12
8653;BME280;4364;52.426;9.424;2024-03-17T12:39:27;101782.03;;;12.06;58.24
8653;BME280;4364;52.426;9.424;2024-03-17T12:42:08;101783.19;;;12.15;59.20
8653;BME280;4364;52.426;9.424;2024-03-17T12:44:57;101781.06;;;12.22;58.68
8653;BME280;4364;52.426;9.424;2024-03-17T12:47:26;101782.72;;;12.23;57.24
8653;BME280;4364;52.426;9.424;2024-03-17T12:50:00;101782.31;;;12.47;57.65
8653;BME280;4364;52.426;9.424;2024-03-17T12:52:27;101790.00;;;12.50;56.75
8653;BME280;4364;52.426;9.424;2024-03-17T12:55:06;101786.75;;;12.58;57.42
8653;BME280;4364;52.426;9.424;2024-03-17T13:00:45;101781.97;;;12.01;56.99
8653;BME280;4364;52.426;9.424;2024-03-17T13:03:23;101780.72;;;12.14;56.18
8653;BME280;4364;52.426;9.424;2024-03-17T13:05:50;101780.47;;;12.15;56.11
8653;BME280;4364;52.426;9.424;2024-03-17T13:08:15;101775.16;;;12.36;56.49
8653;BME280;4364;52.426;9.424;2024-03-17T13:10:41;101776.50;;;12.28;56.52
8653;BME280;4364;52.426;9.424;2024-03-17T13:13:08;101768.91;;;12.40;55.80
8653;BME280;4364;52.426;9.424;2024-03-17T13:15:34;101777.63;;;12.37;55.66
8653;BME280;4364;52.426;9.424;2024-03-17T13:18:05;101777.31;;;12.34;55.19
8653;BME280;4364;52.426;9.424;2024-03-17T13:20:31;101777.91;;;12.41;55.44
8653;BME280;4364;52.426;9.424;2024-03-17T13:22:58;101773.97;;;12.21;54.91
8653;BME280;4364;52.426;9.424;2024-03-17T13:25:30;101776.84;;;11.77;57.05
8653;BME280;4364;52.426;9.424;2024-03-17T13:28:00;101784.00;;;11.83;57.60
8653;BME280;4364;52.426;9.424;2024-03-17T13:30:27;101768.72;;;12.10;57.08
8653;BME280;4364;52.426;9.424;2024-03-17T13:32:54;101771.81;;;12.23;56.96
8653;BME280;4364;52.426;9.424;2024-03-17T13:35:24;101761.31;;;12.48;56.16
8653;BME280;4364;52.426;9.424;2024-03-17T13:37:51;101766.28;;;12.56;54.22
8653;BME280;4364;52.426;9.424;2024-03-17T13:40:18;101768.13;;;12.45;54.71
8653;BME280;4364;52.426;9.424;2024-03-17T13:42:45;101759.09;;;12.39;55.83